Time;durP1;ratioP1;P1;durP2;ratioP2;P2;SDS_P1;SDS_P2;PMS_P1;PMS_P2;Temp;Humidity;BMP_temperature;BMP_pressure;BME280_temperature;BME280_humidity;BME280_pressure;Samples;Min_cycle;Max_cycle;Signal;HPM_P1;HPM_P2
2023/01/13 00:00:02;;;;;;;4.97;3.80;;;;;;;5.15;100.00;99414.38;6108741;23;20219;-82
2023/01/13 00:02:37;;;;;;;3.93;3.10;;;;;;;5.19;100.00;99408.50;6104165;23;20211;-81
2023/01/13 00:05:04;;;;;;;5.43;3.23;;;;;;;5.18;100.00;99406.06;6106675;23;20212;-82
2023/01/13 00:07:31;;;;;;;4.20;3.40;;;;;;;5.18;100.00;99403.41;6108021;23;20272;-82
2023/01/13 00:09:57;;;;;;;3.97;2.87;;;;;;;5.18;100.00;99404.19;6107013;23;20292;-81
2023/01/13 00:12:24;;;;;;;3.70;2.77;;;;;;;5.18;100.00;99400.75;6106254;23;20220;-81
2023/01/13 00:14:51;;;;;;;4.30;2.80;;;;;;;5.25;100.00;99401.63;6234008;23;20195;-81
2023/01/13 00:17:17;;;;;;;2.73;2.23;;;;;;;5.20;100.00;99391.56;6262433;23;20261;-82
2023/01/13 00:19:45;;;;;;;4.13;2.33;;;;;;;5.27;100.00;99403.06;6210893;23;20231;-82
2023/01/13 00:22:12;;;;;;;3.17;2.17;;;;;;;5.36;100.00;99394.97;6081809;23;20231;-81
2023/01/13 00:24:38;;;;;;;3.10;2.20;;;;;;;5.47;100.00;99383.81;6109111;23;20204;-82
2023/01/13 00:27:05;;;;;;;2.87;2.50;;;;;;;5.49;100.00;99387.94;6111193;23;20279;-82
2023/01/13 00:29:32;;;;;;;3.50;2.87;;;;;;;5.36;100.00;99379.03;6108884;23;20234;-82
2023/01/13 00:31:59;;;;;;;3.70;3.13;;;;;;;5.39;100.00;99382.13;6111391;23;20522;-82
2023/01/13 00:34:26;;;;;;;4.23;3.00;;;;;;;5.38;100.00;99384.97;6078275;23;20259;-83
2023/01/13 00:36:57;;;;;;;3.90;3.37;;;;;;;5.42;100.00;99397.66;6093609;23;20230;-82
2023/01/13 00:39:24;;;;;;;4.83;3.57;;;;;;;5.35;100.00;99394.16;6077664;23;20239;-81
2023/01/13 00:44:35;;;;;;;5.07;3.50;;;;;;;5.35;100.00;99382.69;6101414;23;20278;-81
2023/01/13 00:47:02;;;;;;;5.23;3.47;;;;;;;5.35;100.00;99386.19;6098701;23;20208;-81
2023/01/13 00:49:29;;;;;;;5.93;3.87;;;;;;;5.30;100.00;99375.31;6098866;23;20208;-82
2023/01/13 00:51:55;;;;;;;5.93;4.53;;;;;;;5.27;100.00;99375.69;6099770;23;20211;-81
2023/01/13 00:54:22;;;;;;;5.83;4.90;;;;;;;5.28;100.00;99377.31;6100303;23;20234;-81
2023/01/13 00:56:48;;;;;;;7.23;4.70;;;;;;;5.22;100.00;99375.44;6097506;23;20283;-80
2023/01/13 00:59:15;;;;;;;5.37;4.87;;;;;;;5.17;100.00;99377.84;6096055;23;20216;-80
2023/01/13 01:01:42;;;;;;;5.97;5.27;;;;;;;5.20;100.00;99382.78;6095968;23;20684;-81
2023/01/13 01:04:08;;;;;;;7.03;5.10;;;;;;;5.14;100.00;99373.72;6093880;23;20579;-80
2023/01/13 01:06:35;;;;;;;5.97;5.17;;;;;;;5.13;100.00;99379.25;6095799;23;20213;-80
2023/01/13 01:09:03;;;;;;;6.20;4.80;;;;;;;5.12;100.00;99378.44;6095673;23;20215;-80
2023/01/13 01:11:31;;;;;;;7.67;5.73;;;;;;;5.09;100.00;99370.81;6094172;23;20669;-80
2023/01/13 01:14:00;;;;;;;7.47;5.77;;;;;;;5.05;100.00;99366.91;6094092;23;20283;-80
2023/01/13 01:16:28;;;;;;;6.60;5.73;;;;;;;4.99;100.00;99370.34;6095286;23;20535;-80
2023/01/13 01:18:55;;;;;;;7.67;6.20;;;;;;;4.94;100.00;99370.09;6075860;23;20215;-83
2023/01/13 01:21:23;;;;;;;7.33;5.80;;;;;;;4.91;100.00;99366.97;6118922;23;20223;-82
2023/01/13 01:23:52;;;;;;;7.63;6.03;;;;;;;4.85;100.00;99355.31;6092587;22;20231;-82
2023/01/13 01:26:22;;;;;;;6.53;5.83;;;;;;;4.84;100.00;99359.78;6060518;23;20567;-81
2023/01/13 01:28:49;;;;;;;8.23;6.37;;;;;;;4.77;100.00;99360.72;6106092;23;20240;-82
2023/01/13 01:31:20;;;;;;;8.30;5.77;;;;;;;4.78;100.00;99352.56;6110303;23;20212;-82
2023/01/13 01:34:34;;;;;;;7.60;6.60;;;;;;;4.74;100.00;99358.44;6138478;23;20212;-83
2023/01/13 01:37:12;;;;;;;7.20;6.50;;;;;;;4.71;100.00;99342.91;6208961;23;20184;-83
2023/01/13 04:30:49;;;;;;;7.67;6.80;;;;;;;3.87;100.00;99280.75;6236365;22;20213;-82
2023/01/13 04:33:18;;;;;;;7.73;6.70;;;;;;;3.86;100.00;99287.88;6181610;23;20216;-81
2023/01/13 04:35:45;;;;;;;7.50;6.67;;;;;;;3.89;100.00;99273.44;6102707;23;20204;-81
2023/01/13 04:38:14;;;;;;;9.20;6.87;;;;;;;3.93;100.00;99269.38;6101993;23;20263;-82
2023/01/13 04:40:41;;;;;;;10.33;7.67;;;;;;;3.93;100.00;99275.53;6078578;23;20219;-81
2023/01/13 04:43:07;;;;;;;8.30;7.23;;;;;;;3.92;100.00;99278.34;6102482;23;20232;-81
2023/01/13 04:45:34;;;;;;;8.67;7.00;;;;;;;3.98;100.00;99277.63;6103919;23;20217;-81
2023/01/13 04:48:01;;;;;;;8.90;7.30;;;;;;;3.96;100.00;99274.34;6102068;23;20585;-81
2023/01/13 04:50:28;;;;;;;7.93;7.13;;;;;;;4.00;100.00;99275.63;6104366;23;20645;-81
2023/01/13 04:52:55;;;;;;;8.43;6.83;;;;;;;4.01;100.00;99274.59;6102206;23;20204;-81
2023/01/13 04:55:23;;;;;;;8.73;7.70;;;;;;;4.01;100.00;99263.19;6104023;23;20676;-81
2023/01/13 04:57:50;;;;;;;8.80;7.53;;;;;;;3.95;100.00;99257.63;6101932;23;20210;-82
2023/01/13 05:00:19;;;;;;;8.13;7.33;;;;;;;3.99;100.00;99258.88;6103476;23;20204;-81
2023/01/13 05:02:48;;;;;;;9.20;7.47;;;;;;;3.99;100.00;99258.88;6074594;23;20208;-81
2023/01/13 05:05:15;;;;;;;8.87;7.73;;;;;;;4.02;100.00;99267.44;6097813;23;20531;-81
2023/01/13 05:07:42;;;;;;;9.70;7.27;;;;;;;4.02;100.00;99260.31;6101341;23;20219;-81
2023/01/13 05:10:09;;;;;;;8.60;7.03;;;;;;;4.05;100.00;99257.31;6100317;23;20212;-81
2023/01/13 05:18:07;;;;;;;6.50;5.90;;;;;;;4.04;100.00;99254.84;6253562;23;20654;-81
2023/01/13 05:20:34;;;;;;;7.40;5.80;;;;;;;4.04;100.00;99242.41;6255512;23;20624;-81
2023/01/13 05:25:47;;;;;;;6.53;5.47;;;;;;;3.99;100.00;99250.09;6102253;23;20267;-81
2023/01/13 07:06:16;;;;;;;10.13;8.53;;;;;;;3.78;100.00;99281.88;6242641;22;20262;-81
2023/01/13 07:08:43;;;;;;;10.63;9.53;;;;;;;3.85;100.00;99299.47;6234689;22;20181;-82
2023/01/13 07:11:09;;;;;;;11.60;10.40;;;;;;;3.82;100.00;99297.22;6260842;23;20218;-82
2023/01/13 07:16:23;;;;;;;11.13;9.30;;;;;;;4.02;100.00;99297.44;6259511;23;20262;-83
2023/01/13 07:18:49;;;;;;;10.00;8.90;;;;;;;4.12;100.00;99289.19;6258450;23;20216;-81
2023/01/13 07:21:18;;;;;;;10.17;8.23;;;;;;;4.29;100.00;99291.44;6206211;23;20215;-81
2023/01/13 07:23:46;;;;;;;9.87;8.07;;;;;;;4.34;100.00;99283.72;6106331;23;20208;-81
2023/01/13 07:26:13;;;;;;;9.07;8.17;;;;;;;4.50;100.00;99280.03;6087818;23;20212;-81
2023/01/13 07:28:40;;;;;;;9.63;8.20;;;;;;;4.61;100.00;99282.19;6102692;23;20240;-81
2023/01/13 07:31:15;;;;;;;10.63;7.70;;;;;;;4.68;100.00;99277.75;6101371;23;20231;-81
2023/01/13 07:33:42;;;;;;;9.80;7.50;;;;;;;4.77;100.00;99295.19;6077660;23;20220;-81
2023/01/13 07:36:09;;;;;;;15.27;13.67;;;;;;;4.88;100.00;99285.88;6103164;23;20251;-81
2023/01/13 07:38:38;;;;;;;11.03;9.27;;;;;;;4.92;100.00;99271.22;6101736;23;20211;-81
2023/01/13 07:43:59;;;;;;;9.67;8.67;;;;;;;5.09;100.00;99275.22;6106730;23;20283;-80
2023/01/13 07:46:26;;;;;;;10.23;8.90;;;;;;;5.11;100.00;99269.72;6097589;23;20211;-81
2023/01/13 07:48:52;;;;;;;10.17;8.80;;;;;;;5.24;100.00;99275.13;6100417;23;20235;-80
2023/01/13 07:51:19;;;;;;;10.00;8.63;;;;;;;5.24;100.00;99268.00;6100609;23;20204;-81
2023/01/13 07:53:45;;;;;;;9.77;8.80;;;;;;;5.29;100.00;99268.22;6099263;23;20242;-81
2023/01/13 07:56:12;;;;;;;10.40;9.37;;;;;;;5.32;100.00;99264.34;6100181;23;20218;-81
2023/01/13 07:58:39;;;;;;;12.10;10.07;;;;;;;5.42;100.00;99264.81;6098687;23;20228;-81
2023/01/13 08:01:11;;;;;;;11.90;9.87;;;;;;;5.52;100.00;99272.44;6099179;23;20214;-81
2023/01/13 08:03:41;;;;;;;11.70;10.50;;;;;;;5.62;100.00;99262.28;6097631;23;20677;-81
2023/01/13 08:06:09;;;;;;;12.93;11.37;;;;;;;5.67;100.00;99266.00;6097064;23;20214;-81
2023/01/13 08:08:36;;;;;;;11.93;10.73;;;;;;;5.69;100.00;99276.44;6098768;23;20283;-80
2023/01/13 08:11:04;;;;;;;14.83;13.00;;;;;;;5.82;100.00;99279.16;6098399;23;20275;-81
2023/01/13 08:13:31;;;;;;;13.80;12.30;;;;;;;5.81;100.00;99277.53;6097801;23;20219;-81
2023/01/13 08:16:03;;;;;;;11.43;10.30;;;;;;;5.87;100.00;99284.75;6099621;23;20607;-81
2023/01/13 08:18:30;;;;;;;12.90;11.50;;;;;;;5.89;100.00;99300.47;6096023;23;20684;-81
2023/01/13 08:21:01;;;;;;;13.23;11.13;;;;;;;5.85;100.00;99291.22;6099621;23;20222;-81
2023/01/13 08:23:28;;;;;;;11.50;10.30;;;;;;;5.86;100.00;99303.50;6100054;23;20184;-80
2023/01/13 08:25:59;;;;;;;11.57;10.37;;;;;;;5.88;100.00;99304.19;6098550;23;20769;-81
2023/01/13 08:28:25;;;;;;;13.70;12.30;;;;;;;5.89;100.00;99301.31;6098748;23;20212;-80
2023/01/13 08:30:53;;;;;;;11.93;10.73;;;;;;;5.92;100.00;99306.25;6097637;23;20216;-82
2023/01/13 08:33:20;;;;;;;11.60;10.50;;;;;;;5.96;100.00;99302.16;6093652;23;20235;-82
2023/01/13 08:35:47;;;;;;;12.53;10.63;;;;;;;6.02;100.00;99305.88;6094105;23;20216;-81
2023/01/13 08:38:14;;;;;;;13.43;11.10;;;;;;;6.05;100.00;99297.50;6096338;23;20212;-80
2023/01/13 08:40:41;;;;;;;13.50;11.63;;;;;;;6.08;100.00;99302.41;6096453;23;20215;-81
2023/01/13 08:43:07;;;;;;;13.20;11.80;;;;;;;6.10;100.00;99306.53;6094376;23;20216;-81
2023/01/13 08:45:35;;;;;;;11.47;10.27;;;;;;;6.24;100.00;99311.88;6098491;23;20238;-81
2023/01/13 08:48:02;;;;;;;11.87;9.97;;;;;;;6.28;100.00;99323.78;6098049;23;20726;-80
2023/01/13 08:50:28;;;;;;;11.83;10.63;;;;;;;6.30;100.00;99319.88;6099982;23;20240;-81
2023/01/13 08:52:55;;;;;;;11.23;10.03;;;;;;;6.31;100.00;99326.84;6100718;23;20308;-81
2023/01/13 08:55:22;;;;;;;10.93;9.83;;;;;;;6.38;100.00;99322.38;6099255;23;20315;-81
2023/01/13 08:57:48;;;;;;;12.03;10.53;;;;;;;6.43;100.00;99317.28;6098633;23;20212;-81
2023/01/13 09:00:15;;;;;;;11.63;10.07;;;;;;;6.53;100.00;99317.69;6098650;23;20568;-81
2023/01/13 09:02:43;;;;;;;14.17;11.50;;;;;;;6.67;100.00;99317.75;6098533;23;20224;-80
2023/01/13 09:05:10;;;;;;;12.20;10.87;;;;;;;6.73;100.00;99309.75;6097294;23;20209;-80
2023/01/13 09:07:37;;;;;;;11.93;10.50;;;;;;;6.80;100.00;99312.44;6128079;23;20207;-81
2023/01/13 09:10:05;;;;;;;12.57;11.20;;;;;;;6.88;100.00;99312.25;6102291;23;20234;-81
2023/01/13 09:15:17;;;;;;;12.90;11.50;;;;;;;6.95;100.00;99297.91;6105425;23;20257;-81
2023/01/13 09:17:44;;;;;;;12.53;11.23;;;;;;;7.05;100.00;99289.50;6128252;23;20279;-80
2023/01/13 09:20:14;;;;;;;13.30;11.90;;;;;;;7.02;100.00;99287.25;6137924;22;20278;-82
2023/01/13 09:22:50;;;;;;;13.00;11.57;;;;;;;7.08;100.00;99289.09;6111843;23;20215;-80
2023/01/13 09:25:17;;;;;;;13.07;11.73;;;;;;;7.10;100.00;99287.03;6135975;23;20212;-81
2023/01/13 09:27:43;;;;;;;12.00;10.70;;;;;;;7.15;100.00;99283.75;6134492;23;20241;-81
2023/01/13 09:30:10;;;;;;;11.87;10.67;;;;;;;7.20;100.00;99281.31;6134887;23;20207;-81
2023/01/13 09:32:37;;;;;;;12.50;11.20;;;;;;;7.16;100.00;99272.91;6134912;23;20262;-81
2023/01/13 09:35:06;;;;;;;12.10;10.90;;;;;;;7.20;100.00;99275.97;6133072;23;20268;-81
2023/01/13 09:37:38;;;;;;;11.97;10.77;;;;;;;7.21;100.00;99274.94;6108419;23;20208;-81
2023/01/13 09:40:12;;;;;;;11.40;10.30;;;;;;;7.35;100.00;99264.06;6133861;23;20207;-81
2023/01/13 09:45:41;;;;;;;12.87;11.23;;;;;;;7.58;100.00;99260.13;6089265;23;20772;-81
2023/01/13 09:48:17;;;;;;;12.97;10.73;;;;;;;7.65;100.00;99263.59;6084332;23;20211;-81
2023/01/13 09:50:48;;;;;;;11.83;10.63;;;;;;;7.73;100.00;99255.38;6106577;23;20215;-82
2023/01/13 09:53:42;;;;;;;12.63;11.33;;;;;;;7.96;100.00;99255.69;6132242;23;20265;-81
2023/01/13 09:56:10;;;;;;;13.07;11.73;;;;;;;8.06;100.00;99250.72;6104792;23;20267;-81
2023/01/13 09:58:36;;;;;;;16.77;11.70;;;;;;;8.15;100.00;99238.78;6107243;23;20274;-81
2023/01/13 10:01:25;;;;;;;13.07;10.23;;;;;;;8.22;100.00;99236.88;6107674;23;20208;-81
2023/01/13 10:03:52;;;;;;;11.30;10.10;;;;;;;8.22;100.00;99238.72;6107814;23;20235;-81
2023/01/13 10:06:21;;;;;;;13.03;10.17;;;;;;;8.36;100.00;99237.66;6188944;23;20205;-81
2023/01/13 10:08:48;;;;;;;11.67;10.07;;;;;;;8.48;100.00;99238.63;6254865;23;20633;-82
2023/01/13 10:14:18;;;;;;;11.73;10.53;;;;;;;8.67;100.00;99234.19;6206169;23;20735;-81
2023/01/13 10:17:05;;;;;;;11.30;9.77;;;;;;;8.71;100.00;99230.03;6228755;23;20219;-81
2023/01/13 10:19:56;;;;;;;10.40;9.40;;;;;;;8.78;100.00;99228.13;6254094;23;20204;-82
2023/01/13 10:22:42;;;;;;;10.83;9.20;;;;;;;9.00;100.00;99233.91;6234224;23;20205;-82
2023/01/13 10:25:19;;;;;;;10.10;8.93;;;;;;;9.15;100.00;99229.03;6255211;23;20209;-81
2023/01/13 10:27:49;;;;;;;9.77;8.77;;;;;;;9.32;100.00;99230.13;6227928;23;20547;-81
2023/01/13 10:30:30;;;;;;;10.20;8.17;;;;;;;9.51;100.00;99229.09;6227718;23;20216;-81
2023/01/13 10:33:00;;;;;;;8.63;7.50;;;;;;;9.66;100.00;99234.03;6227214;23;20212;-81
2023/01/13 10:35:51;;;;;;;10.33;7.47;;;;;;;9.76;100.00;99218.28;6226710;23;20744;-82
2023/01/13 10:38:45;;;;;;;7.47;6.77;;;;;;;9.84;100.00;99215.34;6251982;23;20254;-81
2023/01/13 10:41:14;;;;;;;8.37;7.10;;;;;;;9.94;100.00;99214.78;6233821;23;20747;-81
2023/01/13 10:43:43;;;;;;;7.70;6.47;;;;;;;10.01;100.00;99213.66;6253474;23;20272;-82
2023/01/13 10:46:14;;;;;;;7.73;6.60;;;;;;;10.07;100.00;99207.41;6225668;23;20200;-81
2023/01/13 10:48:43;;;;;;;8.07;6.57;;;;;;;10.04;100.00;99202.50;6252995;23;20219;-82
2023/01/13 10:51:19;;;;;;;8.07;6.33;;;;;;;10.03;100.00;99200.88;6227101;23;20203;-82
2023/01/13 10:53:55;;;;;;;6.80;5.73;;;;;;;10.09;100.00;99199.16;6252617;23;20335;-82
2023/01/13 10:56:24;;;;;;;7.23;6.63;;;;;;;10.11;100.00;99197.06;6251234;23;20215;-82
2023/01/13 10:58:51;;;;;;;7.80;7.00;;;;;;;10.16;100.00;99183.84;6225561;23;20319;-81
2023/01/13 11:01:25;;;;;;;8.50;6.73;;;;;;;10.31;100.00;99178.09;6226384;23;20259;-82
2023/01/13 11:03:53;;;;;;;9.80;7.20;;;;;;;10.36;100.00;99172.88;6254372;23;20203;-81
2023/01/13 11:06:25;;;;;;;9.77;8.67;;;;;;;10.34;100.00;99178.44;6221062;23;20748;-80
2023/01/13 11:08:54;;;;;;;7.70;6.93;;;;;;;10.32;100.00;99171.66;6247077;23;20601;-81
2023/01/13 11:11:28;;;;;;;7.30;6.60;;;;;;;10.28;100.00;99165.13;6222671;23;20730;-82
2023/01/13 11:16:45;;;;;;;7.87;7.03;;;;;;;10.29;100.00;99154.22;6224691;23;20207;-81
2023/01/13 11:19:21;;;;;;;7.40;6.70;;;;;;;10.25;100.00;99149.53;6221835;23;20204;-81
2023/01/13 11:22:00;;;;;;;7.70;6.20;;;;;;;10.27;100.00;99150.94;6220360;23;20663;-82
2023/01/13 11:24:50;;;;;;;6.87;6.17;;;;;;;10.25;100.00;99141.50;6222423;23;20211;-81
2023/01/13 11:27:23;;;;;;;6.87;5.60;;;;;;;10.29;100.00;99138.16;6222904;23;20657;-81
2023/01/13 11:30:11;;;;;;;6.97;5.87;;;;;;;10.32;100.00;99137.69;6221545;23;20204;-83
2023/01/13 11:33:13;;;;;;;7.20;5.83;;;;;;;10.37;100.00;99132.44;6221490;23;20208;-81
2023/01/13 11:35:44;;;;;;;6.07;5.47;;;;;;;10.44;100.00;99130.50;6161741;23;20208;-81
2023/01/13 11:38:26;;;;;;;6.43;5.77;;;;;;;10.55;100.00;99129.69;6220003;23;20223;-81
2023/01/13 11:40:57;;;;;;;6.63;5.93;;;;;;;10.61;100.00;99130.63;6249179;23;20192;-81
2023/01/13 11:43:41;;;;;;;6.03;5.40;;;;;;;10.64;100.00;99140.06;6246604;23;20263;-82
2023/01/13 11:46:09;;;;;;;6.90;5.40;;;;;;;10.53;100.00;99133.66;6220377;23;20223;-81
2023/01/13 11:48:40;;;;;;;6.43;5.50;;;;;;;10.57;100.00;99143.66;6220728;23;20272;-82
2023/01/13 11:51:12;;;;;;;6.03;5.43;;;;;;;10.54;100.00;99144.09;6220109;23;20579;-81
2023/01/13 11:54:00;;;;;;;5.70;5.17;;;;;;;10.53;100.00;99134.47;6247469;23;20196;-82
2023/01/13 11:57:03;;;;;;;5.90;5.30;;;;;;;10.57;100.00;99132.94;6201094;23;20207;-82
2023/01/13 11:59:32;;;;;;;6.83;5.63;;;;;;;10.60;100.00;99139.69;6224651;23;20205;-81
2023/01/13 12:02:04;;;;;;;7.47;5.67;;;;;;;10.64;100.00;99140.88;6246531;23;20685;-81
2023/01/13 12:04:40;;;;;;;7.63;6.73;;;;;;;10.70;100.00;99142.63;6218734;23;20645;-83
2023/01/13 12:07:23;;;;;;;8.03;6.30;;;;;;;10.79;100.00;99137.72;6219185;23;20271;-82
2023/01/13 12:10:12;;;;;;;7.30;6.20;;;;;;;10.84;100.00;99136.00;6218789;23;20220;-81
2023/01/13 12:13:21;;;;;;;6.33;5.73;;;;;;;10.78;100.00;99128.09;6219139;23;20212;-81
2023/01/13 12:15:47;;;;;;;6.00;5.40;;;;;;;10.79;100.00;99127.84;6126006;23;20247;-81
2023/01/13 12:18:38;;;;;;;6.63;5.80;;;;;;;10.65;100.00;99110.34;6246430;23;20219;-81
2023/01/13 12:21:19;;;;;;;6.70;6.00;;;;;;;10.64;100.00;99102.56;6247105;23;20208;-82
2023/01/13 12:24:09;;;;;;;7.97;6.23;;;;;;;10.58;100.00;99110.50;6221598;23;20208;-82
2023/01/13 12:26:39;;;;;;;8.07;6.67;;;;;;;10.50;100.00;99112.66;6249266;23;20204;-82
2023/01/13 12:29:11;;;;;;;7.13;6.43;;;;;;;10.33;100.00;99109.84;6250254;23;20259;-81
2023/01/13 12:31:39;;;;;;;9.43;8.47;;;;;;;10.32;100.00;99110.91;6249618;23;20201;-82
2023/01/13 12:34:12;;;;;;;9.03;7.70;;;;;;;10.23;100.00;99109.59;6223921;23;20669;-80
2023/01/13 12:36:57;;;;;;;8.23;7.43;;;;;;;10.19;100.00;99103.09;6225729;23;20282;-81
2023/01/13 12:39:59;;;;;;;7.60;6.40;;;;;;;10.14;100.00;99105.59;6223844;23;20223;-82
2023/01/13 12:45:34;;;;;;;7.80;7.00;;;;;;;10.23;100.00;99101.56;6248320;23;20250;-82
2023/01/13 12:48:01;;;;;;;7.40;6.70;;;;;;;10.24;100.00;99105.88;6220709;23;20216;-80
2023/01/13 12:50:28;;;;;;;8.17;7.37;;;;;;;10.20;100.00;99110.06;6247353;23;20215;-82
2023/01/13 12:52:59;;;;;;;7.43;6.73;;;;;;;10.32;100.00;99110.91;6247242;23;20197;-82
2023/01/13 12:55:35;;;;;;;7.10;6.50;;;;;;;10.29;100.00;99114.03;6247496;23;20211;-82
2023/01/13 12:58:14;;;;;;;8.03;6.87;;;;;;;10.23;100.00;99120.31;6220758;23;20235;-80
2023/01/13 13:00:40;;;;;;;14.87;13.47;;;;;;;10.12;100.00;99127.22;6261379;23;20235;-83
2023/01/13 13:03:09;;;;;;;11.20;10.20;;;;;;;10.09;100.00;99127.69;6261530;23;20201;-84
2023/01/13 13:05:39;;;;;;;9.30;8.30;;;;;;;10.11;100.00;99119.44;6255635;23;20204;-83
2023/01/13 13:08:35;;;;;;;9.70;7.30;;;;;;;10.07;100.00;99137.00;6221637;23;20541;-84
2023/01/13 13:14:06;;;;;;;9.53;8.00;;;;;;;10.04;100.00;99124.88;6218530;23;20549;-82
2023/01/13 13:16:48;;;;;;;8.70;7.70;;;;;;;10.03;100.00;99119.78;6221166;23;20610;-82
2023/01/13 13:19:21;;;;;;;8.03;7.23;;;;;;;10.00;100.00;99129.06;6219639;23;20208;-82
2023/01/13 13:22:16;;;;;;;7.93;7.13;;;;;;;10.02;100.00;99129.66;6245984;23;20665;-83
2023/01/13 13:24:56;;;;;;;8.90;8.00;;;;;;;9.83;100.00;99130.75;6251022;23;20239;-82
2023/01/13 13:27:40;;;;;;;8.77;7.97;;;;;;;9.77;100.00;99145.03;6228228;23;20267;-83
2023/01/13 13:30:27;;;;;;;10.40;9.27;;;;;;;9.69;100.00;99148.84;6226318;23;20208;-82
2023/01/13 13:33:12;;;;;;;10.83;9.73;;;;;;;9.68;100.00;99155.22;6199356;23;20577;-83
2023/01/13 13:36:01;;;;;;;11.13;9.97;;;;;;;9.63;100.00;99155.09;6236363;23;20212;-84
2023/01/13 13:47:05;;;;;;;10.60;9.60;;;;;;;9.19;100.00;99158.88;6250723;23;20185;-82
2023/01/13 13:49:39;;;;;;;10.27;9.27;;;;;;;9.10;100.00;99157.53;6222580;23;20219;-82
2023/01/13 13:52:14;;;;;;;10.83;9.77;;;;;;;9.21;100.00;99166.69;6251141;23;20208;-81
2023/01/13 13:54:46;;;;;;;12.43;10.63;;;;;;;9.05;100.00;99172.63;6229081;23;20214;-81
2023/01/13 13:57:16;;;;;;;10.83;9.73;;;;;;;8.94;100.00;99179.50;6190878;23;20207;-82
2023/01/13 13:59:42;;;;;;;11.67;10.10;;;;;;;8.86;100.00;99178.97;6229914;23;20283;-81
2023/01/13 14:02:23;;;;;;;11.17;9.63;;;;;;;8.62;100.00;99188.59;6255033;23;20235;-81
2023/01/13 14:04:50;;;;;;;10.37;9.37;;;;;;;8.55;100.00;99185.16;6230430;23;20561;-81
2023/01/13 14:07:19;;;;;;;11.53;10.13;;;;;;;8.52;100.00;99188.28;6254150;23;20266;-82
2023/01/13 14:09:53;;;;;;;11.17;10.07;;;;;;;8.53;100.00;99177.38;6178848;23;20205;-81
2023/01/13 14:12:22;;;;;;;11.50;10.30;;;;;;;8.37;100.00;99185.91;6256831;23;20235;-81
2023/01/13 14:14:49;;;;;;;11.97;10.73;;;;;;;8.22;100.00;99178.16;6256097;23;20223;-81
2023/01/13 14:17:18;;;;;;;11.13;9.90;;;;;;;8.07;100.00;99192.84;6255961;23;20232;-81
2023/01/13 14:19:50;;;;;;;12.37;10.50;;;;;;;8.03;100.00;99195.09;6257109;23;20700;-82
2023/01/13 14:22:17;;;;;;;10.90;9.63;;;;;;;7.98;100.00;99201.09;6253375;23;20208;-81
2023/01/13 14:24:46;;;;;;;11.17;10.03;;;;;;;7.95;100.00;99203.38;6229540;23;20228;-82
2023/01/13 14:27:16;;;;;;;11.40;10.30;;;;;;;7.80;100.00;99208.97;6229747;23;20235;-81
2023/01/13 14:29:43;;;;;;;11.73;9.90;;;;;;;7.69;100.00;99196.31;6254407;23;20268;-81
2023/01/13 14:32:16;;;;;;;11.83;10.40;;;;;;;7.68;100.00;99201.84;6230046;23;20260;-84
2023/01/13 14:34:43;;;;;;;31.67;27.93;;;;;;;7.66;100.00;99186.06;6230303;23;20296;-81
2023/01/13 14:37:30;;;;;;;17.30;15.47;;;;;;;7.63;100.00;99177.66;6241614;23;20201;-82
2023/01/13 14:39:57;;;;;;;18.00;15.20;;;;;;;7.62;100.00;99178.69;6257473;23;20571;-82
2023/01/13 14:42:24;;;;;;;17.43;15.13;;;;;;;7.49;100.00;99185.72;6256622;23;20200;-81
2023/01/13 14:44:50;;;;;;;17.53;15.67;;;;;;;7.41;100.00;99185.97;6230764;23;20209;-82
2023/01/13 14:47:30;;;;;;;21.00;18.50;;;;;;;7.38;100.00;99193.53;6256203;23;20200;-82
2023/01/13 14:50:26;;;;;;;16.77;14.87;;;;;;;7.37;100.00;99182.06;6230402;23;20212;-82
2023/01/13 14:52:55;;;;;;;21.37;13.63;;;;;;;7.32;100.00;99178.41;6222676;23;20215;-82
2023/01/13 14:55:35;;;;;;;16.63;14.03;;;;;;;7.19;100.00;99179.22;6257527;23;20285;-81
2023/01/13 14:58:20;;;;;;;19.53;15.67;;;;;;;7.21;100.00;99181.69;6229306;23;20250;-81
2023/01/13 15:00:48;;;;;;;16.77;14.97;;;;;;;7.12;100.00;99180.28;6229315;23;20209;-82
2023/01/13 15:03:16;;;;;;;16.93;15.13;;;;;;;7.12;100.00;99177.63;6206333;23;20661;-81
2023/01/13 15:05:52;;;;;;;18.50;15.77;;;;;;;7.05;100.00;99183.78;6256716;23;20252;-81
2023/01/13 15:08:25;;;;;;;17.00;15.20;;;;;;;7.03;100.00;99174.38;6257248;23;20684;-81
2023/01/13 15:10:58;;;;;;;17.83;13.90;;;;;;;6.92;100.00;99174.97;6206594;23;20220;-81
2023/01/13 15:13:49;;;;;;;17.97;15.80;;;;;;;6.82;100.00;99143.44;6255669;23;20216;-81
2023/01/13 15:16:26;;;;;;;15.90;13.70;;;;;;;6.78;100.00;99141.41;6256045;23;20213;-81
2023/01/13 15:18:54;;;;;;;14.40;11.97;;;;;;;6.80;100.00;99177.47;6257639;23;20239;-82
2023/01/13 15:21:21;;;;;;;12.80;10.30;;;;;;;6.63;100.00;99194.84;6232191;23;20213;-81
2023/01/13 15:23:48;;;;;;;11.67;9.97;;;;;;;6.56;100.00;99202.03;6257591;23;20208;-81
2023/01/13 15:26:23;;;;;;;10.83;9.73;;;;;;;6.53;100.00;99202.47;6231340;23;20287;-81
2023/01/13 15:28:50;;;;;;;12.27;10.70;;;;;;;6.56;100.00;99202.03;6258507;23;20210;-81
2023/01/13 15:31:17;;;;;;;12.73;11.33;;;;;;;6.47;100.00;99204.09;6258006;23;20206;-82
2023/01/13 15:33:44;;;;;;;14.67;11.13;;;;;;;6.46;100.00;99207.75;6257811;23;20180;-82
2023/01/13 15:36:19;;;;;;;12.60;11.27;;;;;;;6.40;100.00;99205.91;6224989;23;20661;-82
2023/01/13 15:38:46;;;;;;;13.27;11.87;;;;;;;6.36;100.00;99215.31;6254057;23;20656;-81
2023/01/13 15:41:13;;;;;;;12.80;11.43;;;;;;;6.44;100.00;99204.47;6231561;23;20290;-81
2023/01/13 15:46:36;;;;;;;14.60;11.93;;;;;;;6.25;100.00;99204.47;6225911;23;20196;-81
2023/01/13 15:49:33;;;;;;;13.10;11.70;;;;;;;6.19;100.00;99204.25;6258817;23;20205;-82
2023/01/13 15:52:04;;;;;;;13.40;11.60;;;;;;;6.10;100.00;99202.81;6258128;23;20213;-80
2023/01/13 15:54:31;;;;;;;16.13;12.60;;;;;;;6.07;100.00;99197.03;6233727;23;20535;-82
2023/01/13 15:56:58;;;;;;;13.53;12.13;;;;;;;5.97;100.00;99189.44;6260048;23;20532;-82
2023/01/13 15:59:26;;;;;;;14.70;12.30;;;;;;;5.95;100.00;99196.00;6259768;23;20209;-82
2023/01/13 16:01:53;;;;;;;14.83;12.60;;;;;;;5.91;100.00;99192.94;6206399;23;20209;-81
2023/01/13 16:04:19;;;;;;;13.57;12.13;;;;;;;5.78;100.00;99214.13;6257162;23;20204;-81
2023/01/13 16:06:46;;;;;;;15.23;12.63;;;;;;;5.68;100.00;99225.13;6257971;23;20211;-81
2023/01/13 16:09:13;;;;;;;15.53;13.00;;;;;;;5.67;100.00;99238.59;6258576;23;20211;-81
2023/01/13 16:11:40;;;;;;;13.90;12.50;;;;;;;5.67;100.00;99241.25;6208193;23;20208;-81
2023/01/13 16:14:07;;;;;;;14.27;12.70;;;;;;;5.74;100.00;99232.28;6255235;23;20204;-81
2023/01/13 16:16:34;;;;;;;16.60;12.83;;;;;;;5.66;100.00;99242.28;6259517;23;20224;-81
2023/01/13 16:19:01;;;;;;;14.73;13.10;;;;;;;5.74;100.00;99252.72;6231363;23;20220;-81
2023/01/13 16:21:27;;;;;;;14.67;13.17;;;;;;;5.81;100.00;99247.44;6260055;23;20236;-81
2023/01/13 16:23:54;;;;;;;15.10;13.03;;;;;;;5.73;100.00;99269.72;6256250;23;20225;-81
2023/01/13 16:26:25;;;;;;;15.00;13.30;;;;;;;5.77;100.00;99278.94;6256859;23;20284;-81
2023/01/13 16:28:53;;;;;;;16.40;14.03;;;;;;;5.59;100.00;99289.25;6230979;23;20212;-81
2023/01/13 16:31:25;;;;;;;15.67;13.23;;;;;;;5.73;100.00;99313.06;6204856;23;20268;-81
2023/01/13 16:33:52;;;;;;;16.80;14.10;;;;;;;5.71;100.00;99283.19;6256080;23;20211;-82
2023/01/13 16:36:20;;;;;;;15.47;13.97;;;;;;;5.73;100.00;99313.06;6255536;23;20213;-81
2023/01/13 16:38:48;;;;;;;16.03;14.33;;;;;;;5.82;100.00;99304.94;6256457;23;20571;-81
2023/01/13 16:41:15;;;;;;;17.33;14.10;;;;;;;5.70;100.00;99320.59;6229766;23;20228;-81
2023/01/13 16:43:42;;;;;;;17.10;15.30;;;;;;;5.84;100.00;99340.91;6243647;23;20205;-82
2023/01/13 16:46:28;;;;;;;15.83;14.13;;;;;;;5.78;100.00;99340.91;6228827;23;20603;-81
2023/01/13 16:49:00;;;;;;;15.10;13.47;;;;;;;5.82;100.00;99334.16;6204560;23;20212;-81
2023/01/13 16:51:27;;;;;;;14.70;13.20;;;;;;;5.74;100.00;99351.91;6228870;23;20231;-81
2023/01/13 16:53:53;;;;;;;14.77;13.20;;;;;;;5.81;100.00;99343.16;6251745;23;20216;-81
2023/01/13 16:56:22;;;;;;;15.23;13.33;;;;;;;5.82;100.00;99340.31;6244685;23;20208;-80
2023/01/13 16:58:50;;;;;;;13.67;12.27;;;;;;;5.78;100.00;99350.50;6249639;23;20276;-80